createdAt,value
2017-09-09T00:02:11.491Z,6.60
2017-09-09T00:04:39.935Z,6.40
2017-09-09T00:07:07.435Z,5.40
2017-09-09T00:09:35.696Z,6.73
2017-09-09T00:12:04.115Z,7.03
2017-09-09T00:14:31.612Z,8.97
2017-09-09T00:16:59.111Z,8.40
2017-09-09T00:19:26.883Z,7.90
2017-09-09T00:21:54.503Z,5.73
2017-09-09T00:24:22.019Z,5.37
2017-09-09T00:26:49.513Z,7.00
2017-09-09T00:29:17.779Z,9.43
2017-09-09T00:31:45.387Z,4.27
2017-09-09T00:34:13.009Z,5.70
2017-09-09T00:36:40.539Z,8.37
2017-09-09T00:39:08.031Z,5.87
2017-09-09T00:41:36.298Z,5.93
2017-09-09T00:44:04.559Z,5.80
2017-09-09T00:46:32.824Z,5.23
2017-09-09T00:49:00.327Z,5.93
2017-09-09T00:51:27.827Z,5.97
2017-09-09T00:53:55.337Z,5.00
2017-09-09T00:56:22.995Z,6.90
2017-09-09T00:58:50.495Z,5.20
2017-09-09T01:01:18.779Z,4.77
2017-09-09T01:03:46.275Z,6.17
2017-09-09T01:06:13.767Z,6.13
2017-09-09T01:08:41.496Z,4.77
2017-09-09T01:11:09.155Z,5.90
2017-09-09T01:13:36.675Z,6.33
2017-09-09T01:16:05.082Z,5.33
2017-09-09T01:18:32.571Z,4.90
2017-09-09T01:21:00.070Z,5.33
2017-09-09T01:23:28.497Z,6.63
2017-09-09T01:25:56.134Z,5.47
2017-09-09T01:28:23.631Z,4.40
2017-09-09T01:30:51.120Z,4.60
2017-09-09T01:33:19.519Z,5.30
2017-09-09T01:35:47.023Z,5.03
2017-09-09T01:38:14.571Z,4.80
2017-09-09T01:40:42.059Z,5.47
2017-09-09T01:43:09.563Z,5.80
2017-09-09T01:45:37.178Z,7.30
2017-09-09T01:48:04.683Z,5.20
2017-09-09T01:50:32.250Z,4.37
2017-09-09T01:52:59.758Z,3.73
2017-09-09T01:55:27.276Z,4.50
2017-09-09T01:57:55.694Z,6.00
2017-09-09T02:00:23.351Z,6.23
2017-09-09T02:02:51.006Z,4.50
2017-09-09T02:05:18.533Z,7.07
2017-09-09T02:07:46.802Z,4.73
2017-09-09T02:10:15.216Z,4.70
2017-09-09T02:12:42.874Z,6.47
2017-09-09T02:15:10.540Z,4.90
2017-09-09T02:17:38.191Z,6.10
2017-09-09T02:20:05.864Z,4.47
2017-09-09T02:22:33.518Z,3.80
2017-09-09T02:25:01.019Z,3.83
2017-09-09T02:27:28.511Z,4.93
2017-09-09T02:29:56.002Z,4.47
2017-09-09T02:32:23.731Z,4.03
2017-09-09T02:34:51.227Z,3.47
2017-09-09T02:37:18.842Z,4.90
2017-09-09T02:39:46.335Z,4.40
2017-09-09T02:42:13.827Z,3.37
2017-09-09T02:44:42.091Z,6.23
2017-09-09T02:47:10.359Z,4.43
2017-09-09T02:49:38.623Z,5.93
2017-09-09T02:52:06.258Z,4.30
2017-09-09T02:54:33.900Z,4.67
2017-09-09T02:57:01.551Z,4.17
2017-09-09T02:59:29.077Z,5.27
2017-09-09T03:01:57.354Z,5.63
2017-09-09T03:04:25.611Z,3.83
2017-09-09T03:06:53.107Z,4.47
2017-09-09T03:09:20.876Z,5.87
2017-09-09T03:11:48.535Z,4.60
2017-09-09T03:14:16.032Z,3.57
2017-09-09T03:16:43.531Z,5.60
2017-09-09T03:19:11.124Z,4.33
2017-09-09T03:21:38.622Z,3.37
2017-09-09T03:24:06.878Z,3.37
2017-09-09T03:26:34.482Z,3.37
2017-09-09T03:29:02.136Z,4.50
2017-09-09T03:31:29.793Z,4.77
2017-09-09T03:33:57.286Z,4.20
2017-09-09T03:36:24.782Z,3.90
2017-09-09T03:38:53.043Z,4.97
2017-09-09T03:41:21.456Z,3.27
2017-09-09T03:43:48.947Z,3.67
2017-09-09T03:46:16.446Z,4.53
2017-09-09T03:48:44.834Z,3.20
2017-09-09T03:51:12.503Z,3.40
2017-09-09T03:53:40.161Z,4.00
2017-09-09T03:56:07.815Z,3.87
2017-09-09T03:58:35.478Z,4.70
2017-09-09T04:01:03.149Z,3.40
2017-09-09T04:03:30.647Z,4.53
2017-09-09T04:05:58.165Z,3.70
2017-09-09T04:08:25.724Z,3.40
2017-09-09T04:10:53.355Z,4.47
2017-09-09T04:13:20.863Z,3.63
2017-09-09T04:15:48.385Z,4.33
2017-09-09T04:18:15.961Z,3.93
2017-09-09T04:20:43.587Z,4.10
2017-09-09T04:23:11.083Z,3.33
2017-09-09T04:25:38.704Z,4.13
2017-09-09T04:28:06.232Z,5.93
2017-09-09T04:30:34.642Z,3.30
2017-09-09T04:33:02.287Z,4.43
2017-09-09T04:35:29.911Z,3.50
2017-09-09T04:37:57.487Z,4.63
2017-09-09T04:40:25.759Z,4.00
2017-09-09T04:42:54.151Z,3.67
2017-09-09T04:45:21.818Z,3.47
2017-09-09T04:47:49.467Z,3.37
2017-09-09T04:50:17.011Z,3.43
2017-09-09T04:52:44.803Z,4.30
2017-09-09T04:55:12.327Z,3.70
2017-09-09T04:57:40.718Z,3.60
2017-09-09T05:00:08.579Z,5.87
2017-09-09T05:02:36.235Z,6.13
2017-09-09T05:05:03.754Z,9.33
2017-09-09T05:07:32.174Z,6.30
2017-09-09T05:09:59.693Z,3.67
2017-09-09T05:12:28.023Z,7.30
2017-09-09T05:14:55.530Z,7.30
2017-09-09T05:17:23.027Z,5.70
2017-09-09T05:19:50.523Z,10.90
2017-09-09T05:22:18.031Z,4.47
2017-09-09T05:24:45.639Z,5.53
2017-09-09T05:27:13.899Z,3.70
2017-09-09T05:29:42.163Z,6.27
2017-09-09T05:32:09.782Z,4.67
2017-09-09T05:34:37.295Z,6.90
2017-09-09T05:37:04.791Z,5.97
2017-09-09T05:39:32.374Z,9.10
2017-09-09T05:41:59.867Z,7.70
2017-09-09T05:44:28.131Z,11.60
2017-09-09T05:46:55.641Z,7.50
2017-09-09T05:49:23.143Z,24.43
2017-09-09T05:51:50.659Z,13.40
2017-09-09T05:54:18.164Z,14.70
2017-09-09T05:56:45.757Z,10.40
2017-09-09T05:59:13.258Z,15.87
2017-09-09T06:01:40.772Z,10.07
2017-09-09T06:04:08.531Z,14.67
2017-09-09T06:06:36.182Z,11.70
2017-09-09T06:09:03.678Z,9.90
2017-09-09T06:11:31.178Z,8.60
2017-09-09T06:13:59.450Z,13.47
2017-09-09T06:16:27.863Z,12.80
2017-09-09T06:18:55.523Z,6.33
2017-09-09T06:21:23.047Z,16.40
2017-09-09T06:23:51.431Z,6.20
2017-09-09T06:26:19.091Z,9.37
2017-09-09T06:28:46.747Z,8.93
2017-09-09T06:31:14.242Z,8.30
2017-09-09T06:33:41.755Z,16.77
2017-09-09T06:36:09.335Z,10.40
2017-09-09T06:38:36.835Z,12.60
2017-09-09T06:41:05.279Z,9.13
2017-09-09T06:43:32.939Z,8.67
2017-09-09T06:46:00.444Z,7.60
2017-09-09T06:48:28.715Z,7.00
2017-09-09T06:50:56.974Z,17.27
2017-09-09T06:53:25.239Z,16.83
2017-09-09T06:55:52.731Z,5.30
2017-09-09T06:58:20.237Z,7.57
2017-09-09T07:00:47.738Z,9.63
2017-09-09T07:03:15.267Z,8.67
2017-09-09T07:05:42.787Z,8.20
2017-09-09T07:08:10.287Z,5.00
2017-09-09T07:10:38.550Z,10.60
2017-09-09T07:13:06.807Z,8.13
2017-09-09T07:15:34.310Z,7.37
2017-09-09T07:18:01.884Z,7.40
2017-09-09T07:20:29.379Z,5.07
2017-09-09T07:22:56.883Z,4.43
2017-09-09T07:25:24.449Z,7.10
2017-09-09T07:27:51.951Z,8.20
2017-09-09T07:30:19.450Z,4.20
2017-09-09T07:32:46.951Z,9.60
2017-09-09T07:35:14.443Z,8.30
2017-09-09T07:37:41.935Z,13.50
2017-09-09T07:40:09.459Z,7.53
2017-09-09T07:42:37.230Z,4.97
2017-09-09T07:45:04.769Z,3.93
2017-09-09T07:47:33.027Z,8.10
2017-09-09T07:50:01.359Z,6.10
2017-09-09T07:52:28.879Z,7.00
2017-09-09T07:54:56.506Z,5.93
2017-09-09T07:57:24.207Z,7.47
2017-09-09T07:59:51.719Z,4.00
2017-09-09T08:02:19.991Z,4.20
2017-09-09T08:04:48.279Z,7.23
2017-09-09T08:07:16.565Z,5.87
2017-09-09T08:09:44.237Z,7.23
2017-09-09T08:12:11.875Z,5.63
2017-09-09T08:14:39.461Z,5.30
2017-09-09T08:17:07.218Z,8.53
2017-09-09T08:19:34.795Z,9.73
2017-09-09T08:22:02.287Z,6.00
2017-09-09T08:24:30.799Z,4.17
2017-09-09T08:26:58.415Z,3.93
2017-09-09T08:29:25.918Z,4.83
2017-09-09T08:31:53.475Z,4.33
2017-09-09T08:34:21.126Z,5.47
2017-09-09T08:36:48.647Z,4.50
2017-09-09T08:39:16.143Z,14.17
2017-09-09T08:41:43.742Z,6.43
2017-09-09T08:44:11.350Z,3.80
2017-09-09T08:46:39.010Z,8.80
2017-09-09T08:49:06.670Z,16.73
2017-09-09T08:51:34.191Z,6.53
2017-09-09T08:54:01.803Z,5.60
2017-09-09T08:56:29.369Z,7.13
2017-09-09T08:58:56.880Z,3.80
2017-09-09T09:01:24.403Z,4.90
2017-09-09T09:03:51.895Z,5.27
2017-09-09T09:06:19.403Z,4.30
2017-09-09T09:08:46.960Z,3.60
2017-09-09T09:11:14.572Z,2.93
2017-09-09T09:13:42.091Z,3.70
2017-09-09T09:16:09.582Z,4.70
2017-09-09T09:18:37.138Z,3.70
2017-09-09T09:21:04.649Z,4.27
2017-09-09T09:23:32.171Z,2.80
2017-09-09T09:25:59.672Z,6.20
2017-09-09T09:28:27.191Z,5.53
2017-09-09T09:30:54.691Z,3.53
2017-09-09T09:33:22.967Z,6.10
2017-09-09T09:35:51.233Z,4.70
2017-09-09T09:38:19.649Z,3.57
2017-09-09T09:40:47.155Z,6.40
2017-09-09T09:43:15.582Z,2.80
2017-09-09T09:45:43.139Z,5.53
2017-09-09T09:48:10.765Z,2.97
2017-09-09T09:50:39.159Z,6.73
2017-09-09T09:53:06.666Z,3.67
2017-09-09T09:55:34.270Z,4.73
2017-09-09T09:58:01.931Z,3.20
2017-09-09T10:00:29.446Z,2.63
2017-09-09T10:02:56.944Z,3.13
2017-09-09T10:05:24.454Z,3.83
2017-09-09T10:07:52.771Z,3.53
2017-09-09T10:10:20.438Z,4.37
2017-09-09T10:12:47.931Z,5.23
2017-09-09T10:15:15.453Z,4.80
2017-09-09T10:17:42.963Z,4.97
2017-09-09T10:20:10.476Z,6.83
2017-09-09T10:22:37.985Z,3.80
2017-09-09T10:25:05.955Z,3.70
2017-09-09T10:27:33.554Z,2.93
2017-09-09T10:30:01.073Z,8.17
2017-09-09T10:32:28.587Z,3.47
2017-09-09T10:34:56.295Z,3.40
2017-09-09T10:37:23.855Z,2.77
2017-09-09T10:39:51.527Z,3.07
2017-09-09T10:42:19.056Z,5.70
2017-09-09T10:44:46.622Z,2.70
2017-09-09T10:47:14.143Z,3.47
2017-09-09T10:49:42.414Z,3.90
2017-09-09T10:52:09.909Z,5.43
2017-09-09T10:54:37.463Z,3.07
2017-09-09T10:57:04.960Z,2.97
2017-09-09T10:59:32.579Z,3.20
2017-09-09T11:02:00.075Z,3.93
2017-09-09T11:04:27.591Z,2.90
2017-09-09T11:06:55.159Z,2.83
2017-09-09T11:09:22.812Z,4.70
2017-09-09T11:11:50.462Z,5.23
2017-09-09T11:14:18.133Z,3.43
2017-09-09T11:16:45.787Z,5.13
2017-09-09T11:19:13.383Z,4.50
2017-09-09T11:21:41.663Z,3.10
2017-09-09T11:24:09.364Z,3.03
2017-09-09T11:26:37.028Z,3.03
2017-09-09T11:29:04.526Z,3.07
2017-09-09T11:31:32.039Z,2.50
2017-09-09T11:33:59.539Z,3.00
2017-09-09T11:36:27.087Z,4.20
2017-09-09T11:38:54.584Z,3.53
2017-09-09T11:41:22.886Z,3.37
2017-09-09T11:43:50.651Z,3.13
2017-09-09T11:46:18.176Z,3.07
2017-09-09T11:48:46.451Z,3.77
2017-09-09T11:51:14.446Z,22.33
2017-09-09T11:53:41.947Z,2.83
2017-09-09T11:56:09.443Z,3.17
2017-09-09T11:58:36.942Z,2.93
2017-09-09T12:01:04.654Z,2.40
2017-09-09T12:03:32.146Z,2.87
2017-09-09T12:05:59.649Z,4.87
2017-09-09T12:08:27.939Z,3.73
2017-09-09T12:10:55.522Z,3.20
2017-09-09T12:13:23.040Z,3.00
2017-09-09T12:15:50.690Z,3.00
2017-09-09T12:18:18.966Z,3.13
2017-09-09T12:20:47.357Z,2.60
2017-09-09T12:23:14.879Z,3.07
2017-09-09T12:25:43.143Z,3.13
2017-09-09T12:28:10.689Z,2.37
2017-09-09T12:30:38.191Z,3.70
2017-09-09T12:33:05.862Z,3.10
2017-09-09T12:35:33.358Z,3.23
2017-09-09T12:38:00.847Z,3.90
2017-09-09T12:40:28.347Z,4.27
2017-09-09T12:42:56.082Z,3.33
2017-09-09T12:45:23.760Z,3.40
2017-09-09T12:47:51.417Z,2.80
2017-09-09T12:50:19.074Z,3.60
2017-09-09T12:52:46.724Z,3.50
2017-09-09T12:55:14.243Z,2.43
2017-09-09T12:57:42.650Z,3.50
2017-09-09T13:00:10.163Z,2.60
2017-09-09T13:02:38.579Z,3.50
2017-09-09T13:05:06.248Z,2.50
2017-09-09T13:07:33.894Z,2.60
2017-09-09T13:10:01.400Z,4.93
2017-09-09T13:12:29.017Z,3.00
2017-09-09T13:14:56.518Z,3.40
2017-09-09T13:17:24.038Z,2.67
2017-09-09T13:19:51.584Z,2.33
2017-09-09T13:22:19.112Z,2.90
2017-09-09T13:24:47.383Z,3.47
2017-09-09T13:27:15.663Z,3.00
2017-09-09T13:29:43.160Z,3.23
2017-09-09T13:32:10.691Z,9.10
2017-09-09T13:34:38.344Z,2.90
2017-09-09T13:37:06.003Z,3.17
2017-09-09T13:39:33.594Z,3.23
2017-09-09T13:42:01.295Z,2.83
2017-09-09T13:44:28.989Z,3.30
2017-09-09T13:46:56.497Z,3.03
2017-09-09T13:49:23.990Z,3.40
2017-09-09T13:51:51.751Z,3.63
2017-09-09T13:54:19.250Z,3.60
2017-09-09T13:56:46.876Z,2.80
2017-09-09T13:59:14.396Z,2.90
2017-09-09T14:01:42.655Z,3.23
2017-09-09T14:04:10.239Z,3.33
2017-09-09T14:06:37.730Z,2.90
2017-09-09T14:09:05.252Z,2.77
2017-09-09T14:11:32.816Z,2.57
2017-09-09T14:14:00.480Z,2.80
2017-09-09T14:16:27.984Z,3.00
2017-09-09T14:18:55.487Z,4.17
2017-09-09T14:21:23.095Z,2.40
2017-09-09T14:23:50.599Z,2.40
2017-09-09T14:26:18.353Z,3.33
2017-09-09T14:28:45.843Z,3.00
2017-09-09T14:31:13.354Z,4.30
2017-09-09T14:33:41.614Z,2.50
2017-09-09T14:36:10.016Z,3.57
2017-09-09T14:38:37.620Z,2.77
2017-09-09T14:41:05.144Z,2.83
2017-09-09T14:43:32.640Z,2.80
2017-09-09T14:46:00.163Z,2.53
2017-09-09T14:48:27.651Z,3.00
2017-09-09T14:50:55.295Z,2.80
2017-09-09T14:53:22.859Z,2.37
2017-09-09T14:55:50.467Z,2.40
2017-09-09T14:58:17.959Z,3.03
2017-09-09T15:00:45.575Z,2.80
2017-09-09T15:03:13.075Z,2.47
2017-09-09T15:05:40.690Z,1.90
2017-09-09T15:08:08.347Z,2.77
2017-09-09T15:10:36.006Z,2.90
2017-09-09T15:13:03.527Z,3.33
2017-09-09T15:15:31.020Z,4.60
2017-09-09T15:17:58.612Z,2.20
2017-09-09T15:20:26.230Z,3.40
2017-09-09T15:22:53.898Z,4.23
2017-09-09T15:25:21.560Z,2.50
2017-09-09T15:27:49.094Z,2.70
2017-09-09T15:30:16.590Z,2.87
2017-09-09T15:32:44.335Z,2.90
2017-09-09T15:35:11.993Z,2.43
2017-09-09T15:37:39.635Z,2.47
2017-09-09T15:40:07.131Z,2.50
2017-09-09T15:42:34.631Z,2.67
2017-09-09T15:45:02.909Z,2.60
2017-09-09T15:47:30.407Z,2.50
2017-09-09T15:49:57.967Z,3.63
2017-09-09T15:52:25.583Z,2.37
2017-09-09T15:54:53.107Z,2.40
2017-09-09T15:57:20.679Z,2.77
2017-09-09T15:59:48.199Z,2.77
2017-09-09T16:02:15.695Z,2.60
2017-09-09T16:04:43.995Z,2.80
2017-09-09T16:07:11.515Z,2.83
2017-09-09T16:09:39.050Z,3.00
2017-09-09T16:12:07.324Z,2.90
2017-09-09T16:14:34.819Z,3.37
2017-09-09T16:17:02.328Z,2.50
2017-09-09T16:19:29.823Z,2.80
2017-09-09T16:21:57.439Z,2.83
2017-09-09T16:24:25.152Z,2.77
2017-09-09T16:26:52.813Z,2.83
2017-09-09T16:29:20.314Z,2.40
2017-09-09T16:31:47.856Z,2.57
2017-09-09T16:34:15.379Z,2.47
2017-09-09T16:36:43.032Z,2.10
2017-09-09T16:39:10.707Z,2.57
2017-09-09T16:41:38.227Z,2.50
2017-09-09T16:44:06.016Z,2.63
2017-09-09T16:46:33.511Z,3.87
2017-09-09T16:49:01.134Z,2.50
2017-09-09T16:51:28.648Z,3.10
2017-09-09T16:53:56.335Z,2.40
2017-09-09T16:56:23.835Z,2.60
2017-09-09T16:58:51.431Z,2.17
2017-09-09T17:01:19.007Z,3.27
2017-09-09T17:03:46.671Z,2.30
2017-09-09T17:06:14.180Z,2.10
2017-09-09T17:08:41.707Z,2.20
2017-09-09T17:11:09.227Z,2.47
2017-09-09T17:13:36.722Z,2.70
2017-09-09T17:16:04.224Z,2.70
2017-09-09T17:18:31.724Z,2.40
2017-09-09T17:20:59.271Z,2.10
2017-09-09T17:23:26.886Z,2.40
2017-09-09T17:25:54.386Z,2.27
2017-09-09T17:28:21.879Z,3.00
2017-09-09T17:30:50.411Z,2.30
2017-09-09T17:33:18.172Z,2.53
2017-09-09T17:35:45.830Z,2.00
2017-09-09T17:38:13.490Z,2.60
2017-09-09T17:40:41.145Z,2.47
2017-09-09T17:43:08.647Z,2.77
2017-09-09T17:45:36.163Z,2.30
2017-09-09T17:48:04.515Z,2.60
2017-09-09T17:50:32.054Z,2.33
2017-09-09T17:53:00.315Z,2.87
2017-09-09T17:55:28.723Z,2.23
2017-09-09T17:57:56.239Z,2.13
2017-09-09T18:00:23.867Z,6.60
2017-09-09T18:02:51.496Z,2.60
2017-09-09T18:05:19.000Z,3.10
2017-09-09T18:07:46.626Z,2.00
2017-09-09T18:10:14.129Z,2.87
2017-09-09T18:12:41.941Z,2.43
2017-09-09T18:15:09.439Z,2.93
2017-09-09T18:17:36.956Z,2.30
2017-09-09T18:20:04.466Z,2.30
2017-09-09T18:22:31.995Z,2.50
2017-09-09T18:24:59.495Z,2.40
2017-09-09T18:27:27.062Z,2.57
2017-09-09T18:29:54.715Z,2.37
2017-09-09T18:32:22.379Z,2.63
2017-09-09T18:34:50.035Z,2.30
2017-09-09T18:37:17.691Z,2.10
2017-09-09T18:39:45.203Z,3.70
2017-09-09T18:42:12.786Z,2.43
2017-09-09T18:44:40.291Z,2.47
2017-09-09T18:47:07.794Z,2.37
2017-09-09T18:49:36.058Z,2.10
2017-09-09T18:52:04.339Z,2.03
2017-09-09T18:54:32.623Z,2.43
2017-09-09T18:57:00.187Z,2.20
2017-09-09T18:59:27.699Z,2.20
2017-09-09T19:01:55.195Z,2.33
2017-09-09T19:04:22.915Z,2.03
2017-09-09T19:06:50.418Z,2.47
2017-09-09T19:09:18.090Z,3.07
2017-09-09T19:11:45.665Z,2.97
2017-09-09T19:14:13.395Z,3.00
2017-09-09T19:16:40.901Z,2.37
2017-09-09T19:19:08.536Z,2.93
2017-09-09T19:21:36.034Z,2.27
2017-09-09T19:24:04.299Z,2.37
2017-09-09T19:26:32.563Z,2.83
2017-09-09T19:29:00.059Z,2.03
2017-09-09T19:31:27.615Z,2.87
2017-09-09T19:33:55.110Z,2.40
2017-09-09T19:36:22.634Z,2.40
2017-09-09T19:38:50.135Z,2.30
2017-09-09T19:41:18.251Z,2.40
2017-09-09T19:43:45.756Z,2.30
2017-09-09T19:46:13.274Z,2.13
2017-09-09T19:48:40.772Z,2.23
2017-09-09T19:51:08.291Z,2.77
2017-09-09T19:53:35.927Z,2.60
2017-09-09T19:56:03.455Z,2.40
2017-09-09T19:58:31.859Z,2.50
2017-09-09T20:00:59.376Z,2.20
2017-09-09T20:03:26.878Z,2.23
2017-09-09T20:05:54.458Z,2.47
2017-09-09T20:08:21.955Z,2.67
2017-09-09T20:10:50.216Z,2.87
2017-09-09T20:13:18.019Z,2.57
2017-09-09T20:15:45.518Z,2.37
2017-09-09T20:18:13.044Z,2.33
2017-09-09T20:20:40.603Z,2.43
2017-09-09T20:23:08.119Z,2.77
2017-09-09T20:25:36.416Z,2.10
2017-09-09T20:28:03.995Z,2.17
2017-09-09T20:30:31.503Z,2.50
2017-09-09T20:32:59.788Z,2.17
2017-09-09T20:35:27.377Z,2.40
2017-09-09T20:37:55.020Z,1.83
2017-09-09T20:40:22.523Z,2.50
2017-09-09T20:42:50.127Z,1.93
2017-09-09T20:45:17.791Z,2.30
2017-09-09T20:47:45.307Z,2.43
2017-09-09T20:50:13.576Z,2.20
2017-09-09T20:52:41.855Z,2.13
2017-09-09T20:55:10.174Z,2.47
2017-09-09T20:57:37.699Z,2.20
2017-09-09T21:00:05.208Z,2.40
2017-09-09T21:02:32.719Z,2.40
2017-09-09T21:05:00.215Z,2.37
2017-09-09T21:07:27.726Z,2.07
2017-09-09T21:09:55.216Z,2.40
2017-09-09T21:12:22.740Z,2.47
2017-09-09T21:14:50.507Z,2.20
2017-09-09T21:17:18.167Z,1.90
2017-09-09T21:19:45.675Z,2.97
2017-09-09T21:22:13.168Z,2.23
2017-09-09T21:24:40.729Z,2.27
2017-09-09T21:27:08.331Z,2.20
2017-09-09T21:29:35.831Z,2.00
2017-09-09T21:32:03.360Z,2.10
2017-09-09T21:34:30.992Z,2.87
2017-09-09T21:36:58.622Z,1.80
2017-09-09T21:39:26.124Z,2.10
2017-09-09T21:41:53.637Z,3.70
2017-09-09T21:44:21.196Z,2.03
2017-09-09T21:46:48.721Z,2.17
2017-09-09T21:49:16.992Z,2.40
2017-09-09T21:51:45.407Z,2.20
2017-09-09T21:54:12.902Z,2.53
2017-09-09T21:56:40.518Z,2.50
2017-09-09T21:59:08.020Z,2.20
2017-09-09T22:01:36.292Z,1.97
2017-09-09T22:04:04.699Z,2.30
2017-09-09T22:06:32.359Z,1.90
2017-09-09T22:08:59.874Z,2.23
2017-09-09T22:11:27.371Z,1.80
2017-09-09T22:13:54.971Z,2.20
2017-09-09T22:16:22.478Z,2.10
2017-09-09T22:18:50.244Z,2.20
2017-09-09T22:21:17.906Z,2.63
2017-09-09T22:23:45.415Z,2.23
2017-09-09T22:26:12.923Z,2.10
2017-09-09T22:28:40.439Z,2.07
2017-09-09T22:31:08.126Z,2.10
2017-09-09T22:33:35.644Z,2.00
2017-09-09T22:36:03.974Z,2.20
2017-09-09T22:38:31.511Z,1.80
2017-09-09T22:40:59.022Z,2.30
2017-09-09T22:43:26.619Z,1.90
2017-09-09T22:45:54.131Z,1.90
2017-09-09T22:48:21.647Z,1.90
2017-09-09T22:50:49.151Z,1.90
2017-09-09T22:53:16.851Z,1.93
2017-09-09T22:55:44.350Z,2.20
2017-09-09T22:58:11.863Z,2.20
2017-09-09T23:00:39.358Z,2.33
2017-09-09T23:03:07.083Z,2.13
2017-09-09T23:05:34.576Z,1.90
2017-09-09T23:08:02.187Z,2.27
2017-09-09T23:10:29.690Z,1.80
2017-09-09T23:12:57.307Z,2.00
2017-09-09T23:15:24.851Z,1.80
2017-09-09T23:17:52.526Z,1.97
2017-09-09T23:20:20.027Z,1.77
2017-09-09T23:22:47.540Z,2.17
2017-09-09T23:25:15.043Z,1.87
2017-09-09T23:27:43.314Z,1.97
2017-09-09T23:30:10.906Z,2.00
2017-09-09T23:32:38.395Z,2.17
2017-09-09T23:35:05.898Z,2.00
2017-09-09T23:37:34.163Z,2.27
2017-09-09T23:40:02.426Z,2.13
2017-09-09T23:42:29.918Z,1.70
2017-09-09T23:44:57.475Z,2.17
2017-09-09T23:47:25.140Z,1.80
2017-09-09T23:49:52.639Z,2.00
2017-09-09T23:52:20.254Z,2.27
2017-09-09T23:54:47.751Z,1.97
2017-09-09T23:57:15.371Z,1.90
2017-09-09T23:59:42.871Z,1.87
